createdAt,value
2018-07-11T00:01:49.729Z,82.00
2018-07-11T00:06:44.287Z,82.10
2018-07-11T00:11:38.817Z,82.10
2018-07-11T00:16:33.701Z,82.50
2018-07-11T00:21:28.224Z,82.60
2018-07-11T00:26:22.779Z,83.20
2018-07-11T00:31:17.323Z,83.40
2018-07-11T00:36:11.898Z,83.10
2018-07-11T00:41:07.267Z,82.80
2018-07-11T00:46:02.497Z,82.10
2018-07-11T00:50:57.570Z,82.10
2018-07-11T00:55:52.133Z,83.00
2018-07-11T01:01:02.143Z,83.40
2018-07-11T01:05:57.008Z,82.30
2018-07-11T01:10:51.503Z,81.50
2018-07-11T01:15:46.217Z,81.20
2018-07-11T01:20:41.168Z,81.50
2018-07-11T01:25:35.702Z,81.90
2018-07-11T01:30:30.205Z,82.70
2018-07-11T01:35:24.715Z,83.20
2018-07-11T01:40:19.235Z,84.00
2018-07-11T01:45:13.815Z,84.80
2018-07-11T01:50:08.329Z,85.40
2018-07-11T01:55:02.969Z,86.00
2018-07-11T01:59:58.293Z,86.90
2018-07-11T02:04:52.860Z,87.30
2018-07-11T02:09:47.420Z,88.00
2018-07-11T02:19:36.805Z,88.60
2018-07-11T02:24:31.685Z,88.40
2018-07-11T02:29:27.273Z,88.60
2018-07-11T02:34:27.028Z,88.70
2018-07-11T02:39:21.530Z,88.70
2018-07-11T02:44:16.128Z,89.10
2018-07-11T02:49:10.736Z,89.00
2018-07-11T02:54:05.379Z,89.20
2018-07-11T03:03:54.105Z,89.50
2018-07-11T03:08:48.581Z,89.20
2018-07-11T03:13:43.203Z,89.40
2018-07-11T03:18:37.745Z,89.20
2018-07-11T03:23:32.324Z,89.50
2018-07-11T03:28:26.849Z,90.30
2018-07-11T03:33:21.416Z,90.90
2018-07-11T03:38:16.021Z,91.00
2018-07-11T03:43:10.557Z,91.10
2018-07-11T03:48:05.095Z,91.10
2018-07-11T03:52:59.657Z,90.70
2018-07-11T03:57:54.183Z,91.00
2018-07-11T04:02:49.146Z,91.10
2018-07-11T04:07:43.654Z,91.30
2018-07-11T04:12:38.372Z,91.60
2018-07-11T04:17:32.875Z,91.80
2018-07-11T04:22:27.885Z,91.70
2018-07-11T04:27:22.568Z,91.70
2018-07-11T04:32:17.194Z,91.90
2018-07-11T04:37:11.702Z,91.70
2018-07-11T04:42:06.636Z,91.90
2018-07-11T04:47:01.230Z,92.00
2018-07-11T04:51:55.824Z,92.10
2018-07-11T04:56:50.449Z,91.70
2018-07-11T05:01:44.998Z,91.60
2018-07-11T05:06:39.652Z,91.40
2018-07-11T05:11:34.222Z,91.30
2018-07-11T05:16:28.762Z,91.30
2018-07-11T05:21:23.301Z,91.00
2018-07-11T05:26:17.909Z,90.60
2018-07-11T05:31:12.463Z,88.80
2018-07-11T05:36:06.880Z,88.40
2018-07-11T05:41:01.405Z,89.00
2018-07-11T05:45:55.849Z,86.70
2018-07-11T05:50:50.244Z,88.30
2018-07-11T05:55:44.668Z,89.70
2018-07-11T06:00:39.043Z,90.10
2018-07-11T06:05:33.470Z,90.20
2018-07-11T06:10:27.857Z,89.70
2018-07-11T06:15:22.343Z,89.00
2018-07-11T06:20:16.778Z,88.90
2018-07-11T06:25:11.431Z,87.80
2018-07-11T06:30:05.890Z,86.90
2018-07-11T06:35:00.692Z,86.20
2018-07-11T06:39:55.141Z,84.80
2018-07-11T06:44:51.538Z,85.80
2018-07-11T06:49:47.552Z,85.90
2018-07-11T06:54:42.114Z,85.10
2018-07-11T06:59:37.492Z,84.30
2018-07-11T07:04:33.950Z,83.70
2018-07-11T07:09:28.572Z,83.10
2018-07-11T07:19:19.454Z,83.30
2018-07-11T07:24:38.601Z,83.10
2018-07-11T07:29:38.081Z,81.90
2018-07-11T07:34:32.986Z,80.60
2018-07-11T07:39:28.408Z,79.70
2018-07-11T07:44:23.410Z,77.20
2018-07-11T07:49:18.925Z,74.30
2018-07-11T07:54:14.621Z,76.50
2018-07-11T07:59:09.469Z,75.40
2018-07-11T08:04:04.186Z,73.60
2018-07-11T08:08:59.229Z,73.00
2018-07-11T08:13:53.998Z,72.50
2018-07-11T08:18:48.543Z,73.00
2018-07-11T08:24:00.154Z,73.80
2018-07-11T08:29:46.719Z,73.40
2018-07-11T08:41:04.690Z,74.60
2018-07-11T08:46:19.354Z,72.00
2018-07-11T08:51:43.971Z,72.80
2018-07-11T08:59:11.923Z,72.10
2018-07-11T09:06:26.049Z,71.70
2018-07-11T09:15:49.271Z,70.50
2018-07-11T09:21:02.936Z,68.20
2018-07-11T09:25:57.876Z,68.90
2018-07-11T09:30:52.800Z,67.80
2018-07-11T09:40:42.152Z,67.40
2018-07-11T09:45:39.928Z,67.90
2018-07-11T09:50:35.024Z,68.40
2018-07-11T09:55:30.026Z,66.80
2018-07-11T10:05:24.889Z,65.90
2018-07-11T10:10:26.163Z,63.80
2018-07-11T10:15:20.931Z,63.90
2018-07-11T10:20:15.539Z,63.30
2018-07-11T10:25:10.956Z,64.10
2018-07-11T10:30:05.749Z,64.40
2018-07-11T10:39:54.860Z,63.60
2018-07-11T10:44:53.159Z,64.30
2018-07-11T10:49:48.210Z,66.80
2018-07-11T10:54:43.060Z,68.70
2018-07-11T10:59:38.384Z,68.20
2018-07-11T11:04:33.482Z,65.50
2018-07-11T11:09:28.325Z,65.50
2018-07-11T11:19:18.740Z,64.60
2018-07-11T11:24:14.160Z,64.00
2018-07-11T11:29:09.273Z,61.50
2018-07-11T11:34:04.241Z,60.10
2018-07-11T11:38:59.235Z,62.10
2018-07-11T11:43:53.974Z,59.80
2018-07-11T11:53:43.790Z,58.50
2018-07-11T11:58:38.593Z,57.20
2018-07-11T12:03:34.401Z,56.10
2018-07-11T12:08:29.258Z,57.20
2018-07-11T12:13:24.068Z,58.20
2018-07-11T12:18:19.218Z,57.10
2018-07-11T12:23:14.168Z,57.20
2018-07-11T12:28:12.160Z,57.30
2018-07-11T12:33:07.336Z,55.80
2018-07-11T12:38:02.337Z,56.50
2018-07-11T12:42:57.027Z,57.30
2018-07-11T12:47:56.793Z,56.30
2018-07-11T12:52:51.636Z,56.20
2018-07-11T12:57:46.306Z,56.30
2018-07-11T13:02:40.930Z,57.50
2018-07-11T13:07:36.049Z,55.90
2018-07-11T13:12:30.880Z,54.50
2018-07-11T13:17:28.615Z,55.40
2018-07-11T13:22:26.098Z,54.40
2018-07-11T13:27:21.056Z,56.60
2018-07-11T13:32:16.399Z,56.30
2018-07-11T13:37:11.861Z,56.00
2018-07-11T13:42:06.464Z,56.60
2018-07-11T13:47:01.129Z,55.50
2018-07-11T13:56:50.363Z,54.90
2018-07-11T14:01:51.381Z,55.30
2018-07-11T14:06:46.403Z,54.90
2018-07-11T14:11:41.789Z,56.00
2018-07-11T14:16:36.425Z,55.90
2018-07-11T14:21:31.013Z,55.90
2018-07-11T14:26:26.269Z,55.90
2018-07-11T14:31:33.164Z,54.50
2018-07-11T14:36:28.027Z,55.50
2018-07-11T14:46:19.598Z,56.10
2018-07-11T14:51:16.138Z,57.30
2018-07-11T14:56:10.861Z,56.00
2018-07-11T15:01:05.662Z,54.60
2018-07-11T15:06:00.250Z,54.70
2018-07-11T15:10:54.828Z,54.30
2018-07-11T15:15:49.458Z,54.50
2018-07-11T15:20:44.275Z,54.60
2018-07-11T15:25:38.842Z,53.90
2018-07-11T15:30:33.476Z,55.70
2018-07-11T15:35:28.229Z,56.40
2018-07-11T15:40:23.029Z,55.70
2018-07-11T15:45:17.706Z,56.70
2018-07-11T15:50:12.557Z,56.70
2018-07-11T15:55:07.164Z,56.40
2018-07-11T16:00:09.057Z,56.40
2018-07-11T16:05:03.792Z,56.40
2018-07-11T16:09:59.764Z,55.40
2018-07-11T16:14:54.996Z,55.90
2018-07-11T16:19:49.822Z,55.10
2018-07-11T16:24:44.849Z,56.00
2018-07-11T16:29:39.692Z,55.90
2018-07-11T16:39:28.488Z,57.40
2018-07-11T16:44:23.039Z,56.50
2018-07-11T16:49:17.920Z,56.30
2018-07-11T16:54:12.548Z,55.90
2018-07-11T16:59:07.604Z,56.70
2018-07-11T17:04:06.928Z,57.80
2018-07-11T17:09:01.561Z,57.60
2018-07-11T17:14:01.506Z,57.90
2018-07-11T17:19:02.525Z,59.10
2018-07-11T17:24:05.380Z,60.80
2018-07-11T17:29:02.122Z,60.60
2018-07-11T17:33:56.654Z,60.40
2018-07-11T17:38:51.210Z,60.40
2018-07-11T17:48:58.651Z,59.60
2018-07-11T17:53:57.364Z,60.10
2018-07-11T17:58:55.965Z,61.80
2018-07-11T18:04:33.021Z,61.40
2018-07-11T18:09:27.532Z,61.60
2018-07-11T18:14:43.784Z,62.70
2018-07-11T18:20:17.358Z,62.90
2018-07-11T18:27:59.461Z,62.90
2018-07-11T18:35:10.973Z,63.10
2018-07-11T18:40:35.030Z,63.60
2018-07-11T18:47:17.544Z,63.70
2018-07-11T18:52:23.613Z,65.10
2018-07-11T18:57:59.197Z,66.30
2018-07-11T19:04:09.118Z,66.50
2018-07-11T19:09:10.276Z,65.90
2018-07-11T19:14:07.705Z,66.40
2018-07-11T19:19:09.775Z,68.10
2018-07-11T19:24:08.968Z,68.70
2018-07-11T19:30:15.872Z,70.60
2018-07-11T19:37:24.009Z,72.10
2018-07-11T19:42:34.682Z,74.00
2018-07-11T19:47:45.709Z,74.30
2018-07-11T19:52:53.131Z,75.00
2018-07-11T19:57:47.671Z,75.40
2018-07-11T20:02:42.291Z,76.00
2018-07-11T20:07:36.861Z,75.60
2018-07-11T20:12:31.517Z,76.00
2018-07-11T20:17:26.369Z,76.40
2018-07-11T20:22:20.974Z,76.60
2018-07-11T20:27:15.497Z,77.60
2018-07-11T20:32:10.198Z,79.00
2018-07-11T20:37:04.780Z,78.60
2018-07-11T20:41:59.796Z,80.40
2018-07-11T20:46:54.556Z,81.30
2018-07-11T20:51:49.122Z,81.20
2018-07-11T20:56:43.677Z,82.90
2018-07-11T21:01:55.008Z,83.70
2018-07-11T21:07:06.283Z,82.00
2018-07-11T21:14:22.287Z,83.40
2018-07-11T21:19:16.829Z,84.20
2018-07-11T21:24:12.444Z,85.30
2018-07-11T21:29:07.024Z,86.00
2018-07-11T21:34:01.577Z,86.80
2018-07-11T21:38:56.042Z,86.80
2018-07-11T21:43:50.564Z,87.70
2018-07-11T21:48:45.552Z,88.70
2018-07-11T21:53:40.042Z,89.50
2018-07-11T21:58:34.599Z,90.10
2018-07-11T22:03:29.185Z,90.40
2018-07-11T22:08:23.692Z,90.70
2018-07-11T22:13:18.429Z,91.10
2018-07-11T22:18:29.617Z,90.90
2018-07-11T22:23:22.421Z,91.30
2018-07-11T22:28:15.189Z,91.80
2018-07-11T22:33:07.953Z,91.80
2018-07-11T22:38:00.740Z,92.10
2018-07-11T22:42:53.549Z,91.90
2018-07-11T22:47:46.337Z,92.40
2018-07-11T22:57:32.152Z,92.10
2018-07-11T23:02:24.906Z,92.70
2018-07-11T23:07:17.697Z,92.60
2018-07-11T23:12:10.468Z,92.70
2018-07-11T23:17:03.777Z,92.90
2018-07-11T23:21:56.844Z,93.30
2018-07-11T23:26:49.633Z,94.00
2018-07-11T23:31:42.553Z,94.20
2018-07-11T23:36:35.350Z,94.60
2018-07-11T23:41:28.119Z,94.70
2018-07-11T23:46:21.231Z,94.40
2018-07-11T23:51:14.061Z,95.10
2018-07-11T23:56:06.895Z,94.80
